sensor_id;sensor_type;location;lat;lon;timestamp;temperature;humidity
40822;DHT22;26542;50.836;5.356;2022-09-09T00:00:53;17.20;99.90
40822;DHT22;26542;50.836;5.356;2022-09-09T00:06:33;17.20;99.90
40822;DHT22;26542;50.836;5.356;2022-09-09T00:09:12;17.20;99.90
40822;DHT22;26542;50.836;5.356;2022-09-09T00:12:00;17.40;99.90
40822;DHT22;26542;50.836;5.356;2022-09-09T00:14:50;17.30;99.90
40822;DHT22;26542;50.836;5.356;2022-09-09T00:20:12;17.30;99.90
40822;DHT22;26542;50.836;5.356;2022-09-09T00:22:47;17.30;99.90
40822;DHT22;26542;50.836;5.356;2022-09-09T00:25:23;17.20;99.90
40822;DHT22;26542;50.836;5.356;2022-09-09T00:27:52;17.20;99.90
40822;DHT22;26542;50.836;5.356;2022-09-09T00:30:33;17.20;99.90
40822;DHT22;26542;50.836;5.356;2022-09-09T00:33:08;17.10;99.90
40822;DHT22;26542;50.836;5.356;2022-09-09T00:35:40;17.20;99.90
40822;DHT22;26542;50.836;5.356;2022-09-09T00:38:15;17.10;99.90
40822;DHT22;26542;50.836;5.356;2022-09-09T00:41:09;17.00;99.90
40822;DHT22;26542;50.836;5.356;2022-09-09T00:43:39;17.00;99.90
40822;DHT22;26542;50.836;5.356;2022-09-09T00:55:00;17.00;99.90
40822;DHT22;26542;50.836;5.356;2022-09-09T00:57:33;17.00;99.90
40822;DHT22;26542;50.836;5.356;2022-09-09T01:00:31;17.10;99.90
40822;DHT22;26542;50.836;5.356;2022-09-09T01:11:25;17.00;99.90
40822;DHT22;26542;50.836;5.356;2022-09-09T01:16:59;16.90;99.90
40822;DHT22;26542;50.836;5.356;2022-09-09T01:25:20;17.00;99.90
40822;DHT22;26542;50.836;5.356;2022-09-09T01:27:50;17.10;99.90
40822;DHT22;26542;50.836;5.356;2022-09-09T01:30:18;17.00;99.90
40822;DHT22;26542;50.836;5.356;2022-09-09T01:32:52;17.00;99.90
40822;DHT22;26542;50.836;5.356;2022-09-09T01:38:12;17.10;99.90
40822;DHT22;26542;50.836;5.356;2022-09-09T01:40:38;17.10;99.90
40822;DHT22;26542;50.836;5.356;2022-09-09T01:43:04;17.10;99.90
40822;DHT22;26542;50.836;5.356;2022-09-09T01:45:33;17.10;99.90
40822;DHT22;26542;50.836;5.356;2022-09-09T01:47:59;17.10;99.90
40822;DHT22;26542;50.836;5.356;2022-09-09T01:50:25;17.10;99.90
40822;DHT22;26542;50.836;5.356;2022-09-09T01:52:59;17.10;99.90
40822;DHT22;26542;50.836;5.356;2022-09-09T01:55:38;17.10;99.90
40822;DHT22;26542;50.836;5.356;2022-09-09T01:58:13;17.20;99.90
40822;DHT22;26542;50.836;5.356;2022-09-09T02:00:51;17.20;99.90
40822;DHT22;26542;50.836;5.356;2022-09-09T02:03:29;17.20;99.90
40822;DHT22;26542;50.836;5.356;2022-09-09T02:08:57;17.20;99.90
40822;DHT22;26542;50.836;5.356;2022-09-09T02:11:24;17.10;99.90
40822;DHT22;26542;50.836;5.356;2022-09-09T02:17:30;17.20;99.90
40822;DHT22;26542;50.836;5.356;2022-09-09T02:20:08;17.10;99.90
40822;DHT22;26542;50.836;5.356;2022-09-09T02:22:35;17.10;99.90
40822;DHT22;26542;50.836;5.356;2022-09-09T02:25:03;17.10;99.90
40822;DHT22;26542;50.836;5.356;2022-09-09T02:27:30;17.10;99.90
40822;DHT22;26542;50.836;5.356;2022-09-09T02:29:58;17.10;99.90
40822;DHT22;26542;50.836;5.356;2022-09-09T02:32:25;17.10;99.90
40822;DHT22;26542;50.836;5.356;2022-09-09T02:35:08;17.10;99.90
40822;DHT22;26542;50.836;5.356;2022-09-09T02:37:38;17.10;99.90
40822;DHT22;26542;50.836;5.356;2022-09-09T02:40:06;17.10;99.90
40822;DHT22;26542;50.836;5.356;2022-09-09T02:42:45;17.10;99.90
40822;DHT22;26542;50.836;5.356;2022-09-09T02:45:14;17.00;99.90
40822;DHT22;26542;50.836;5.356;2022-09-09T02:48:04;17.00;99.90
40822;DHT22;26542;50.836;5.356;2022-09-09T02:50:35;16.80;99.90
40822;DHT22;26542;50.836;5.356;2022-09-09T02:53:19;16.90;99.90
40822;DHT22;26542;50.836;5.356;2022-09-09T02:58:28;17.00;99.90
40822;DHT22;26542;50.836;5.356;2022-09-09T03:00:53;16.90;99.90
40822;DHT22;26542;50.836;5.356;2022-09-09T03:03:20;16.90;99.90
40822;DHT22;26542;50.836;5.356;2022-09-09T03:05:48;16.80;99.90
40822;DHT22;26542;50.836;5.356;2022-09-09T03:08:13;16.80;99.90
40822;DHT22;26542;50.836;5.356;2022-09-09T03:10:39;16.80;99.90
40822;DHT22;26542;50.836;5.356;2022-09-09T03:13:07;16.90;99.90
40822;DHT22;26542;50.836;5.356;2022-09-09T03:15:36;16.80;99.90
40822;DHT22;26542;50.836;5.356;2022-09-09T03:18:02;16.90;99.90
40822;DHT22;26542;50.836;5.356;2022-09-09T03:20:29;16.90;99.90
40822;DHT22;26542;50.836;5.356;2022-09-09T03:22:56;16.90;99.90
40822;DHT22;26542;50.836;5.356;2022-09-09T03:25:25;16.90;99.90
40822;DHT22;26542;50.836;5.356;2022-09-09T03:27:52;16.90;99.90
40822;DHT22;26542;50.836;5.356;2022-09-09T03:30:22;17.00;99.90
40822;DHT22;26542;50.836;5.356;2022-09-09T03:32:48;17.00;99.90
40822;DHT22;26542;50.836;5.356;2022-09-09T03:35:16;16.90;99.90
40822;DHT22;26542;50.836;5.356;2022-09-09T03:37:45;16.90;99.90
40822;DHT22;26542;50.836;5.356;2022-09-09T03:40:11;17.00;99.90
40822;DHT22;26542;50.836;5.356;2022-09-09T03:42:38;17.00;99.90
40822;DHT22;26542;50.836;5.356;2022-09-09T03:45:05;16.90;99.90
40822;DHT22;26542;50.836;5.356;2022-09-09T03:47:32;16.90;99.90
40822;DHT22;26542;50.836;5.356;2022-09-09T03:49:58;16.90;99.90
40822;DHT22;26542;50.836;5.356;2022-09-09T03:52:24;17.10;99.90
40822;DHT22;26542;50.836;5.356;2022-09-09T03:54:52;17.00;99.90
40822;DHT22;26542;50.836;5.356;2022-09-09T03:57:18;17.10;99.90
40822;DHT22;26542;50.836;5.356;2022-09-09T03:59:46;17.10;99.90
40822;DHT22;26542;50.836;5.356;2022-09-09T04:02:15;16.90;99.90
40822;DHT22;26542;50.836;5.356;2022-09-09T04:04:40;17.00;99.90
40822;DHT22;26542;50.836;5.356;2022-09-09T04:07:06;16.90;99.90
40822;DHT22;26542;50.836;5.356;2022-09-09T04:09:33;16.90;99.90
40822;DHT22;26542;50.836;5.356;2022-09-09T04:12:00;16.90;99.90
40822;DHT22;26542;50.836;5.356;2022-09-09T04:14:28;16.90;99.90
40822;DHT22;26542;50.836;5.356;2022-09-09T04:16:56;16.80;99.90
40822;DHT22;26542;50.836;5.356;2022-09-09T04:19:25;16.70;99.90
40822;DHT22;26542;50.836;5.356;2022-09-09T04:21:51;16.70;99.90
40822;DHT22;26542;50.836;5.356;2022-09-09T04:24:17;16.70;99.90
40822;DHT22;26542;50.836;5.356;2022-09-09T04:26:48;16.80;99.90
40822;DHT22;26542;50.836;5.356;2022-09-09T04:29:13;16.80;99.90
40822;DHT22;26542;50.836;5.356;2022-09-09T04:31:39;16.80;99.90
40822;DHT22;26542;50.836;5.356;2022-09-09T04:34:08;16.90;99.90
40822;DHT22;26542;50.836;5.356;2022-09-09T04:36:36;16.90;99.90
40822;DHT22;26542;50.836;5.356;2022-09-09T04:39:06;16.90;99.90
40822;DHT22;26542;50.836;5.356;2022-09-09T04:41:34;16.80;99.90
40822;DHT22;26542;50.836;5.356;2022-09-09T04:44:01;16.70;99.90
40822;DHT22;26542;50.836;5.356;2022-09-09T04:46:27;16.60;99.90
40822;DHT22;26542;50.836;5.356;2022-09-09T04:48:52;16.60;99.90
40822;DHT22;26542;50.836;5.356;2022-09-09T04:51:19;16.70;99.90
40822;DHT22;26542;50.836;5.356;2022-09-09T04:53:45;16.70;99.90
40822;DHT22;26542;50.836;5.356;2022-09-09T04:56:15;16.60;99.90
40822;DHT22;26542;50.836;5.356;2022-09-09T04:58:41;16.60;99.90
40822;DHT22;26542;50.836;5.356;2022-09-09T05:01:11;16.60;99.90
40822;DHT22;26542;50.836;5.356;2022-09-09T05:03:38;16.70;99.90
40822;DHT22;26542;50.836;5.356;2022-09-09T05:06:06;16.60;99.90
40822;DHT22;26542;50.836;5.356;2022-09-09T05:08:40;16.70;99.90
40822;DHT22;26542;50.836;5.356;2022-09-09T05:11:23;16.70;99.90
40822;DHT22;26542;50.836;5.356;2022-09-09T05:13:50;16.80;99.90
40822;DHT22;26542;50.836;5.356;2022-09-09T05:16:16;16.80;99.90
40822;DHT22;26542;50.836;5.356;2022-09-09T05:18:43;16.70;99.90
40822;DHT22;26542;50.836;5.356;2022-09-09T05:21:09;16.60;99.90
40822;DHT22;26542;50.836;5.356;2022-09-09T05:23:36;16.60;99.90
40822;DHT22;26542;50.836;5.356;2022-09-09T05:26:11;16.50;99.90
40822;DHT22;26542;50.836;5.356;2022-09-09T05:28:40;16.60;99.90
40822;DHT22;26542;50.836;5.356;2022-09-09T05:31:07;16.60;99.90
40822;DHT22;26542;50.836;5.356;2022-09-09T05:33:36;16.60;99.90
40822;DHT22;26542;50.836;5.356;2022-09-09T05:36:15;16.70;99.90
40822;DHT22;26542;50.836;5.356;2022-09-09T05:38:43;16.70;99.90
40822;DHT22;26542;50.836;5.356;2022-09-09T05:41:10;16.70;99.90
40822;DHT22;26542;50.836;5.356;2022-09-09T05:43:37;16.70;99.90
40822;DHT22;26542;50.836;5.356;2022-09-09T05:46:07;16.80;99.90
40822;DHT22;26542;50.836;5.356;2022-09-09T05:48:38;16.80;99.90
40822;DHT22;26542;50.836;5.356;2022-09-09T05:51:06;17.00;99.90
40822;DHT22;26542;50.836;5.356;2022-09-09T05:53:35;17.00;99.90
40822;DHT22;26542;50.836;5.356;2022-09-09T05:56:03;17.00;99.90
40822;DHT22;26542;50.836;5.356;2022-09-09T05:58:31;17.00;99.90
40822;DHT22;26542;50.836;5.356;2022-09-09T06:01:08;16.90;99.90
40822;DHT22;26542;50.836;5.356;2022-09-09T06:03:40;17.00;99.90
40822;DHT22;26542;50.836;5.356;2022-09-09T06:06:09;17.00;99.90
40822;DHT22;26542;50.836;5.356;2022-09-09T06:08:38;17.10;99.90
40822;DHT22;26542;50.836;5.356;2022-09-09T06:11:06;17.10;99.90
40822;DHT22;26542;50.836;5.356;2022-09-09T06:13:33;17.10;99.90
40822;DHT22;26542;50.836;5.356;2022-09-09T06:15:59;17.10;99.90
40822;DHT22;26542;50.836;5.356;2022-09-09T06:18:28;17.20;99.90
40822;DHT22;26542;50.836;5.356;2022-09-09T06:21:02;17.10;99.90
40822;DHT22;26542;50.836;5.356;2022-09-09T06:23:30;17.20;99.90
40822;DHT22;26542;50.836;5.356;2022-09-09T06:26:02;17.30;99.90
40822;DHT22;26542;50.836;5.356;2022-09-09T06:28:29;17.30;99.90
40822;DHT22;26542;50.836;5.356;2022-09-09T06:31:10;17.20;99.90
40822;DHT22;26542;50.836;5.356;2022-09-09T06:36:47;17.10;99.90
40822;DHT22;26542;50.836;5.356;2022-09-09T06:39:14;17.10;99.90
40822;DHT22;26542;50.836;5.356;2022-09-09T06:41:41;17.20;99.90
40822;DHT22;26542;50.836;5.356;2022-09-09T06:44:09;17.20;99.90
40822;DHT22;26542;50.836;5.356;2022-09-09T06:46:37;17.20;99.90
40822;DHT22;26542;50.836;5.356;2022-09-09T06:49:03;17.20;99.90
40822;DHT22;26542;50.836;5.356;2022-09-09T06:51:31;17.30;99.90
40822;DHT22;26542;50.836;5.356;2022-09-09T06:54:00;17.40;99.90
40822;DHT22;26542;50.836;5.356;2022-09-09T06:56:29;17.40;99.90
40822;DHT22;26542;50.836;5.356;2022-09-09T06:59:01;17.40;99.90
40822;DHT22;26542;50.836;5.356;2022-09-09T07:01:38;17.50;99.90
40822;DHT22;26542;50.836;5.356;2022-09-09T07:04:09;17.50;99.90
40822;DHT22;26542;50.836;5.356;2022-09-09T07:06:44;17.50;99.90
40822;DHT22;26542;50.836;5.356;2022-09-09T07:09:13;17.60;99.90
40822;DHT22;26542;50.836;5.356;2022-09-09T07:11:41;17.70;99.90
40822;DHT22;26542;50.836;5.356;2022-09-09T07:14:07;17.60;99.90
40822;DHT22;26542;50.836;5.356;2022-09-09T07:16:34;17.50;99.90
40822;DHT22;26542;50.836;5.356;2022-09-09T07:19:03;17.50;99.90
40822;DHT22;26542;50.836;5.356;2022-09-09T07:21:30;17.50;99.90
40822;DHT22;26542;50.836;5.356;2022-09-09T07:23:58;17.50;99.90
40822;DHT22;26542;50.836;5.356;2022-09-09T07:26:28;17.50;99.90
40822;DHT22;26542;50.836;5.356;2022-09-09T07:28:57;17.50;99.90
40822;DHT22;26542;50.836;5.356;2022-09-09T07:31:29;17.60;99.90
40822;DHT22;26542;50.836;5.356;2022-09-09T07:33:59;17.60;99.90
40822;DHT22;26542;50.836;5.356;2022-09-09T07:36:38;17.70;99.90
40822;DHT22;26542;50.836;5.356;2022-09-09T07:39:07;17.80;99.90
40822;DHT22;26542;50.836;5.356;2022-09-09T07:41:39;17.90;99.90
40822;DHT22;26542;50.836;5.356;2022-09-09T07:44:11;17.90;99.90
40822;DHT22;26542;50.836;5.356;2022-09-09T07:46:37;18.00;99.90
40822;DHT22;26542;50.836;5.356;2022-09-09T07:49:05;18.10;99.90
40822;DHT22;26542;50.836;5.356;2022-09-09T07:51:35;18.20;99.90
40822;DHT22;26542;50.836;5.356;2022-09-09T07:54:08;18.10;99.90
40822;DHT22;26542;50.836;5.356;2022-09-09T07:56:38;18.10;99.90
40822;DHT22;26542;50.836;5.356;2022-09-09T07:59:04;18.20;99.90
40822;DHT22;26542;50.836;5.356;2022-09-09T08:01:37;18.20;99.90
40822;DHT22;26542;50.836;5.356;2022-09-09T08:04:10;18.30;99.90
40822;DHT22;26542;50.836;5.356;2022-09-09T08:06:43;18.30;99.90
40822;DHT22;26542;50.836;5.356;2022-09-09T08:09:10;18.30;99.90
40822;DHT22;26542;50.836;5.356;2022-09-09T08:11:36;18.30;99.90
40822;DHT22;26542;50.836;5.356;2022-09-09T08:14:03;18.20;99.90
40822;DHT22;26542;50.836;5.356;2022-09-09T08:16:32;18.10;99.90
40822;DHT22;26542;50.836;5.356;2022-09-09T08:18:59;18.10;99.90
40822;DHT22;26542;50.836;5.356;2022-09-09T08:21:27;18.10;99.90
40822;DHT22;26542;50.836;5.356;2022-09-09T08:23:55;18.10;99.90
40822;DHT22;26542;50.836;5.356;2022-09-09T08:26:27;18.20;99.90
40822;DHT22;26542;50.836;5.356;2022-09-09T08:28:57;18.00;99.90
40822;DHT22;26542;50.836;5.356;2022-09-09T08:31:28;18.10;99.90
40822;DHT22;26542;50.836;5.356;2022-09-09T08:33:57;18.10;99.90
40822;DHT22;26542;50.836;5.356;2022-09-09T08:36:27;18.10;99.90
40822;DHT22;26542;50.836;5.356;2022-09-09T08:38:55;18.10;99.90
40822;DHT22;26542;50.836;5.356;2022-09-09T08:47:47;18.10;99.90
40822;DHT22;26542;50.836;5.356;2022-09-09T08:58:25;18.00;99.90
40822;DHT22;26542;50.836;5.356;2022-09-09T09:11:55;18.10;99.90
40822;DHT22;26542;50.836;5.356;2022-09-09T09:14:30;18.30;99.90
40822;DHT22;26542;50.836;5.356;2022-09-09T09:19:33;18.40;99.90
40822;DHT22;26542;50.836;5.356;2022-09-09T09:22:14;18.40;99.90
40822;DHT22;26542;50.836;5.356;2022-09-09T09:24:59;18.50;99.90
40822;DHT22;26542;50.836;5.356;2022-09-09T09:27:34;18.50;99.90
40822;DHT22;26542;50.836;5.356;2022-09-09T09:30:06;18.40;99.90
40822;DHT22;26542;50.836;5.356;2022-09-09T09:32:40;18.30;99.90
40822;DHT22;26542;50.836;5.356;2022-09-09T09:35:13;18.20;99.90
40822;DHT22;26542;50.836;5.356;2022-09-09T09:37:40;18.10;99.90
40822;DHT22;26542;50.836;5.356;2022-09-09T09:40:14;18.20;99.90
40822;DHT22;26542;50.836;5.356;2022-09-09T09:45:33;18.20;99.90
40822;DHT22;26542;50.836;5.356;2022-09-09T09:48:04;18.30;99.90
40822;DHT22;26542;50.836;5.356;2022-09-09T09:50:31;18.30;99.90
40822;DHT22;26542;50.836;5.356;2022-09-09T09:53:17;18.50;99.90
40822;DHT22;26542;50.836;5.356;2022-09-09T09:55:53;18.50;99.90
40822;DHT22;26542;50.836;5.356;2022-09-09T09:58:23;18.80;99.90
40822;DHT22;26542;50.836;5.356;2022-09-09T10:00:54;18.70;99.90
40822;DHT22;26542;50.836;5.356;2022-09-09T10:03:32;18.70;99.90
40822;DHT22;26542;50.836;5.356;2022-09-09T10:06:03;18.70;99.90
40822;DHT22;26542;50.836;5.356;2022-09-09T10:08:44;18.70;99.90
40822;DHT22;26542;50.836;5.356;2022-09-09T10:14:21;18.70;99.90
40822;DHT22;26542;50.836;5.356;2022-09-09T10:19:34;18.50;99.90
40822;DHT22;26542;50.836;5.356;2022-09-09T10:25:30;18.10;99.90
40822;DHT22;26542;50.836;5.356;2022-09-09T10:28:24;17.70;99.90
40822;DHT22;26542;50.836;5.356;2022-09-09T10:31:17;17.50;99.90
40822;DHT22;26542;50.836;5.356;2022-09-09T10:33:51;17.40;99.90
40822;DHT22;26542;50.836;5.356;2022-09-09T10:36:23;17.50;99.90
40822;DHT22;26542;50.836;5.356;2022-09-09T10:39:03;17.50;99.90
40822;DHT22;26542;50.836;5.356;2022-09-09T10:44:58;17.40;99.90
40822;DHT22;26542;50.836;5.356;2022-09-09T10:53:12;17.70;99.90
40822;DHT22;26542;50.836;5.356;2022-09-09T10:55:45;18.00;99.90
40822;DHT22;26542;50.836;5.356;2022-09-09T10:58:31;18.20;99.90
40822;DHT22;26542;50.836;5.356;2022-09-09T11:01:03;18.30;99.90
40822;DHT22;26542;50.836;5.356;2022-09-09T11:03:38;18.40;99.90
40822;DHT22;26542;50.836;5.356;2022-09-09T11:06:14;18.30;99.90
40822;DHT22;26542;50.836;5.356;2022-09-09T11:08:42;18.30;99.90
40822;DHT22;26542;50.836;5.356;2022-09-09T11:11:18;18.40;99.90
40822;DHT22;26542;50.836;5.356;2022-09-09T11:14:00;18.50;99.90
40822;DHT22;26542;50.836;5.356;2022-09-09T11:19:44;18.50;99.90
40822;DHT22;26542;50.836;5.356;2022-09-09T11:22:18;18.70;99.90
40822;DHT22;26542;50.836;5.356;2022-09-09T11:24:57;18.90;99.90
40822;DHT22;26542;50.836;5.356;2022-09-09T11:27:42;18.90;99.90
40822;DHT22;26542;50.836;5.356;2022-09-09T11:33:16;18.70;99.90
40822;DHT22;26542;50.836;5.356;2022-09-09T11:36:03;18.70;99.90
40822;DHT22;26542;50.836;5.356;2022-09-09T11:38:47;18.80;99.90
40822;DHT22;26542;50.836;5.356;2022-09-09T11:41:15;18.90;99.90
40822;DHT22;26542;50.836;5.356;2022-09-09T11:43:45;18.80;99.90
40822;DHT22;26542;50.836;5.356;2022-09-09T11:46:15;18.80;99.90
40822;DHT22;26542;50.836;5.356;2022-09-09T11:49:00;18.90;99.90
40822;DHT22;26542;50.836;5.356;2022-09-09T11:51:27;19.00;99.90
40822;DHT22;26542;50.836;5.356;2022-09-09T11:54:29;19.00;99.90
40822;DHT22;26542;50.836;5.356;2022-09-09T11:56:50;19.00;99.90
40822;DHT22;26542;50.836;5.356;2022-09-09T11:59:27;19.00;99.90
40822;DHT22;26542;50.836;5.356;2022-09-09T12:02:09;18.90;99.90
40822;DHT22;26542;50.836;5.356;2022-09-09T12:07:57;18.80;99.90
40822;DHT22;26542;50.836;5.356;2022-09-09T12:10:34;18.70;99.90
40822;DHT22;26542;50.836;5.356;2022-09-09T12:13:22;18.70;99.90
40822;DHT22;26542;50.836;5.356;2022-09-09T12:15:56;18.80;99.90
40822;DHT22;26542;50.836;5.356;2022-09-09T12:18:35;18.80;99.90
40822;DHT22;26542;50.836;5.356;2022-09-09T12:24:19;17.50;99.90
40822;DHT22;26542;50.836;5.356;2022-09-09T12:29:36;16.20;99.90
40822;DHT22;26542;50.836;5.356;2022-09-09T12:32:11;15.90;99.90
40822;DHT22;26542;50.836;5.356;2022-09-09T12:34:52;15.90;99.90
40822;DHT22;26542;50.836;5.356;2022-09-09T12:37:32;15.90;99.90
40822;DHT22;26542;50.836;5.356;2022-09-09T12:40:02;16.10;99.90
40822;DHT22;26542;50.836;5.356;2022-09-09T12:42:29;16.30;99.90
40822;DHT22;26542;50.836;5.356;2022-09-09T12:45:00;16.50;99.90
40822;DHT22;26542;50.836;5.356;2022-09-09T12:47:37;16.70;99.90
40822;DHT22;26542;50.836;5.356;2022-09-09T12:50:04;17.00;99.90
40822;DHT22;26542;50.836;5.356;2022-09-09T12:52:36;17.20;99.90
40822;DHT22;26542;50.836;5.356;2022-09-09T12:55:06;17.40;99.90
40822;DHT22;26542;50.836;5.356;2022-09-09T12:57:36;17.60;99.90
40822;DHT22;26542;50.836;5.356;2022-09-09T13:00:21;17.80;99.90
40822;DHT22;26542;50.836;5.356;2022-09-09T13:02:53;18.00;99.90
40822;DHT22;26542;50.836;5.356;2022-09-09T13:05:35;18.20;99.90
40822;DHT22;26542;50.836;5.356;2022-09-09T13:08:11;18.20;99.90
40822;DHT22;26542;50.836;5.356;2022-09-09T13:11:07;18.20;99.90
40822;DHT22;26542;50.836;5.356;2022-09-09T13:13:37;18.20;99.90
40822;DHT22;26542;50.836;5.356;2022-09-09T13:16:05;18.30;99.90
40822;DHT22;26542;50.836;5.356;2022-09-09T13:18:40;18.50;99.90
40822;DHT22;26542;50.836;5.356;2022-09-09T13:21:09;18.60;99.90
40822;DHT22;26542;50.836;5.356;2022-09-09T13:23:36;18.70;99.90
40822;DHT22;26542;50.836;5.356;2022-09-09T13:28:52;19.00;99.90
40822;DHT22;26542;50.836;5.356;2022-09-09T13:31:39;19.10;99.90
40822;DHT22;26542;50.836;5.356;2022-09-09T13:34:13;19.30;99.90
40822;DHT22;26542;50.836;5.356;2022-09-09T13:36:39;19.30;99.90
40822;DHT22;26542;50.836;5.356;2022-09-09T13:39:15;19.30;99.90
40822;DHT22;26542;50.836;5.356;2022-09-09T13:41:43;19.20;99.90
40822;DHT22;26542;50.836;5.356;2022-09-09T13:44:23;19.20;99.90
40822;DHT22;26542;50.836;5.356;2022-09-09T13:49:34;19.10;99.90
40822;DHT22;26542;50.836;5.356;2022-09-09T13:52:16;19.10;99.90
40822;DHT22;26542;50.836;5.356;2022-09-09T13:54:48;19.30;99.90
40822;DHT22;26542;50.836;5.356;2022-09-09T13:57:25;19.30;99.90
40822;DHT22;26542;50.836;5.356;2022-09-09T13:59:52;19.30;99.90
40822;DHT22;26542;50.836;5.356;2022-09-09T14:02:18;19.50;99.90
40822;DHT22;26542;50.836;5.356;2022-09-09T14:04:44;19.60;99.90
40822;DHT22;26542;50.836;5.356;2022-09-09T14:07:18;19.80;99.90
40822;DHT22;26542;50.836;5.356;2022-09-09T14:09:44;19.90;99.90
40822;DHT22;26542;50.836;5.356;2022-09-09T14:12:14;20.20;99.90
40822;DHT22;26542;50.836;5.356;2022-09-09T14:14:41;20.40;99.90
40822;DHT22;26542;50.836;5.356;2022-09-09T14:17:07;20.50;99.90
40822;DHT22;26542;50.836;5.356;2022-09-09T14:19:33;20.50;99.90
40822;DHT22;26542;50.836;5.356;2022-09-09T14:22:02;20.50;99.90
40822;DHT22;26542;50.836;5.356;2022-09-09T14:24:28;20.50;99.90
40822;DHT22;26542;50.836;5.356;2022-09-09T14:26:54;20.40;99.90
40822;DHT22;26542;50.836;5.356;2022-09-09T14:29:20;20.30;99.90
40822;DHT22;26542;50.836;5.356;2022-09-09T14:31:46;20.10;99.90
40822;DHT22;26542;50.836;5.356;2022-09-09T14:34:12;20.00;99.90
40822;DHT22;26542;50.836;5.356;2022-09-09T14:36:40;19.90;99.90
40822;DHT22;26542;50.836;5.356;2022-09-09T14:39:05;20.10;99.90
40822;DHT22;26542;50.836;5.356;2022-09-09T14:41:31;20.30;99.90
40822;DHT22;26542;50.836;5.356;2022-09-09T14:43:59;20.40;99.80
40822;DHT22;26542;50.836;5.356;2022-09-09T14:46:31;20.30;99.90
40822;DHT22;26542;50.836;5.356;2022-09-09T14:48:57;20.20;99.60
40822;DHT22;26542;50.836;5.356;2022-09-09T14:51:26;20.20;99.90
40822;DHT22;26542;50.836;5.356;2022-09-09T14:53:58;20.30;99.90
40822;DHT22;26542;50.836;5.356;2022-09-09T14:56:26;20.40;99.90
40822;DHT22;26542;50.836;5.356;2022-09-09T14:58:57;20.50;99.90
40822;DHT22;26542;50.836;5.356;2022-09-09T15:01:24;20.70;99.90
40822;DHT22;26542;50.836;5.356;2022-09-09T15:04:12;20.80;98.80
40822;DHT22;26542;50.836;5.356;2022-09-09T15:06:40;20.80;99.00
40822;DHT22;26542;50.836;5.356;2022-09-09T15:09:20;20.70;99.50
40822;DHT22;26542;50.836;5.356;2022-09-09T15:11:47;20.30;99.70
40822;DHT22;26542;50.836;5.356;2022-09-09T15:14:13;20.30;99.90
40822;DHT22;26542;50.836;5.356;2022-09-09T15:16:39;20.50;99.90
40822;DHT22;26542;50.836;5.356;2022-09-09T15:19:05;20.60;99.90
40822;DHT22;26542;50.836;5.356;2022-09-09T15:21:34;20.70;99.20
40822;DHT22;26542;50.836;5.356;2022-09-09T15:23:59;20.50;99.60
40822;DHT22;26542;50.836;5.356;2022-09-09T15:26:26;20.20;99.80
40822;DHT22;26542;50.836;5.356;2022-09-09T15:28:53;20.20;99.90
40822;DHT22;26542;50.836;5.356;2022-09-09T15:31:30;20.10;99.90
40822;DHT22;26542;50.836;5.356;2022-09-09T15:33:58;20.30;99.90
40822;DHT22;26542;50.836;5.356;2022-09-09T15:44:57;20.60;99.70
40822;DHT22;26542;50.836;5.356;2022-09-09T15:47:27;20.50;99.90
40822;DHT22;26542;50.836;5.356;2022-09-09T15:53:00;20.70;99.90
40822;DHT22;26542;50.836;5.356;2022-09-09T15:55:28;20.60;98.90
40822;DHT22;26542;50.836;5.356;2022-09-09T15:57:54;20.40;98.80
40822;DHT22;26542;50.836;5.356;2022-09-09T16:00:29;20.40;99.00
40822;DHT22;26542;50.836;5.356;2022-09-09T16:02:55;20.40;99.70
40822;DHT22;26542;50.836;5.356;2022-09-09T16:05:30;20.40;99.20
40822;DHT22;26542;50.836;5.356;2022-09-09T16:07:58;20.40;98.80
40822;DHT22;26542;50.836;5.356;2022-09-09T16:10:23;20.10;99.90
40822;DHT22;26542;50.836;5.356;2022-09-09T16:12:52;19.60;99.90
40822;DHT22;26542;50.836;5.356;2022-09-09T16:15:21;19.10;99.90
40822;DHT22;26542;50.836;5.356;2022-09-09T16:17:49;18.80;99.90
40822;DHT22;26542;50.836;5.356;2022-09-09T16:20:16;18.70;99.90
40822;DHT22;26542;50.836;5.356;2022-09-09T16:22:43;18.60;99.90
40822;DHT22;26542;50.836;5.356;2022-09-09T16:25:09;18.70;99.90
40822;DHT22;26542;50.836;5.356;2022-09-09T16:27:37;18.70;99.90
40822;DHT22;26542;50.836;5.356;2022-09-09T16:30:04;18.70;99.90
40822;DHT22;26542;50.836;5.356;2022-09-09T16:32:30;18.60;99.90
40822;DHT22;26542;50.836;5.356;2022-09-09T16:35:00;18.50;99.90
40822;DHT22;26542;50.836;5.356;2022-09-09T16:37:25;18.50;99.90
40822;DHT22;26542;50.836;5.356;2022-09-09T16:39:52;18.40;99.90
40822;DHT22;26542;50.836;5.356;2022-09-09T16:42:20;18.50;99.90
40822;DHT22;26542;50.836;5.356;2022-09-09T16:44:49;18.50;99.90
40822;DHT22;26542;50.836;5.356;2022-09-09T16:47:15;18.60;99.90
40822;DHT22;26542;50.836;5.356;2022-09-09T16:49:43;18.60;99.90
40822;DHT22;26542;50.836;5.356;2022-09-09T16:52:09;18.70;99.90
40822;DHT22;26542;50.836;5.356;2022-09-09T16:54:36;18.80;99.90
40822;DHT22;26542;50.836;5.356;2022-09-09T16:57:01;18.80;99.90
40822;DHT22;26542;50.836;5.356;2022-09-09T16:59:29;18.80;99.90
40822;DHT22;26542;50.836;5.356;2022-09-09T17:02:00;18.70;99.90
40822;DHT22;26542;50.836;5.356;2022-09-09T17:04:30;18.70;99.90
40822;DHT22;26542;50.836;5.356;2022-09-09T17:06:58;18.60;99.90
40822;DHT22;26542;50.836;5.356;2022-09-09T17:09:26;18.50;99.90
40822;DHT22;26542;50.836;5.356;2022-09-09T17:11:54;18.50;99.90
40822;DHT22;26542;50.836;5.356;2022-09-09T17:14:21;18.40;99.90
40822;DHT22;26542;50.836;5.356;2022-09-09T17:16:48;18.40;99.90
40822;DHT22;26542;50.836;5.356;2022-09-09T17:19:15;18.30;99.90
40822;DHT22;26542;50.836;5.356;2022-09-09T17:21:42;18.40;99.90
40822;DHT22;26542;50.836;5.356;2022-09-09T17:24:10;18.30;99.90
40822;DHT22;26542;50.836;5.356;2022-09-09T17:26:36;18.30;99.90
40822;DHT22;26542;50.836;5.356;2022-09-09T17:29:06;18.40;99.90
40822;DHT22;26542;50.836;5.356;2022-09-09T17:31:32;18.30;99.90
40822;DHT22;26542;50.836;5.356;2022-09-09T17:33:59;18.20;99.90
40822;DHT22;26542;50.836;5.356;2022-09-09T17:36:29;18.20;99.90
40822;DHT22;26542;50.836;5.356;2022-09-09T17:38:57;18.10;99.90
40822;DHT22;26542;50.836;5.356;2022-09-09T17:41:44;18.10;99.90
40822;DHT22;26542;50.836;5.356;2022-09-09T17:44:12;18.20;99.90
40822;DHT22;26542;50.836;5.356;2022-09-09T17:46:40;18.20;99.90
40822;DHT22;26542;50.836;5.356;2022-09-09T17:49:09;18.20;99.90
40822;DHT22;26542;50.836;5.356;2022-09-09T17:51:36;18.20;99.90
40822;DHT22;26542;50.836;5.356;2022-09-09T17:54:24;18.20;99.90
40822;DHT22;26542;50.836;5.356;2022-09-09T17:56:50;18.20;99.90
40822;DHT22;26542;50.836;5.356;2022-09-09T17:59:17;18.20;99.90
40822;DHT22;26542;50.836;5.356;2022-09-09T18:01:47;18.10;99.90